createdAt,value
2023-02-09T00:01:46.803Z,62.03
2023-02-09T00:04:34.915Z,60.57
2023-02-09T00:07:22.283Z,63.83
2023-02-09T00:10:09.866Z,60.97
2023-02-09T00:13:15.825Z,67.47
2023-02-09T00:16:03.723Z,59.47
2023-02-09T00:18:51.071Z,61.27
2023-02-09T00:21:38.685Z,68.27
2023-02-09T00:24:26.050Z,58.93
2023-02-09T00:27:13.404Z,62.03
2023-02-09T00:30:00.808Z,65.83
2023-02-09T00:32:48.222Z,59.23
2023-02-09T00:35:35.648Z,58.47
2023-02-09T00:38:23.060Z,56.77
2023-02-09T00:41:10.975Z,57.77
2023-02-09T00:43:58.638Z,63.73
2023-02-09T00:46:46.007Z,64.47
2023-02-09T00:49:33.481Z,60.73
2023-02-09T00:52:20.842Z,59.57
2023-02-09T00:55:08.291Z,56.93
2023-02-09T00:57:55.691Z,62.80
2023-02-09T01:00:43.243Z,64.27
2023-02-09T01:03:30.789Z,69.60
2023-02-09T01:06:18.226Z,66.63
2023-02-09T01:09:05.631Z,61.87
2023-02-09T01:11:53.076Z,59.00
2023-02-09T01:14:40.477Z,70.90
2023-02-09T01:17:28.122Z,69.07
2023-02-09T01:20:15.582Z,69.37
2023-02-09T01:23:02.937Z,67.03
2023-02-09T01:25:50.302Z,69.10
2023-02-09T01:28:38.404Z,65.63
2023-02-09T01:31:25.860Z,69.97
2023-02-09T01:34:14.494Z,70.10
2023-02-09T01:37:01.872Z,63.80
2023-02-09T01:39:49.310Z,75.13
2023-02-09T01:42:36.705Z,74.67
2023-02-09T01:45:24.128Z,69.20
2023-02-09T01:48:11.824Z,69.23
2023-02-09T01:51:00.086Z,67.53
2023-02-09T01:53:48.148Z,63.67
2023-02-09T01:56:37.866Z,63.43
2023-02-09T01:59:25.274Z,68.80
2023-02-09T02:02:13.275Z,64.57
2023-02-09T02:05:00.784Z,74.00
2023-02-09T02:07:55.212Z,71.07
2023-02-09T02:10:42.785Z,68.43
2023-02-09T02:13:30.547Z,72.13
2023-02-09T02:16:29.266Z,71.07
2023-02-09T02:19:16.591Z,69.93
2023-02-09T02:22:26.603Z,71.93
2023-02-09T02:25:22.893Z,69.23
2023-02-09T02:28:22.434Z,64.17
2023-02-09T02:31:28.597Z,64.33
2023-02-09T02:34:16.054Z,72.03
2023-02-09T02:37:19.873Z,70.13
2023-02-09T02:40:10.338Z,64.03
2023-02-09T02:43:06.351Z,64.30
2023-02-09T02:45:53.691Z,63.03
2023-02-09T02:48:43.562Z,61.97
2023-02-09T02:51:33.657Z,62.00
2023-02-09T02:54:27.222Z,61.30
2023-02-09T02:57:17.452Z,62.50
2023-02-09T03:00:10.944Z,56.97
2023-02-09T03:03:01.078Z,61.70
2023-02-09T03:05:49.721Z,57.90
2023-02-09T03:08:56.460Z,67.30
2023-02-09T03:11:45.142Z,62.53
2023-02-09T03:14:40.323Z,63.83
2023-02-09T03:17:37.336Z,65.97
2023-02-09T03:20:31.551Z,66.43
2023-02-09T03:23:33.776Z,69.77
2023-02-09T03:26:22.750Z,68.60
2023-02-09T03:29:10.654Z,56.67
2023-02-09T03:31:58.294Z,63.77
2023-02-09T03:34:46.110Z,60.73
2023-02-09T03:37:33.476Z,65.73
2023-02-09T03:40:20.951Z,59.80
2023-02-09T03:43:08.744Z,60.67
2023-02-09T03:45:56.073Z,61.50
2023-02-09T03:48:43.499Z,62.90
2023-02-09T03:51:30.882Z,54.83
2023-02-09T03:54:18.244Z,65.57
2023-02-09T03:57:06.186Z,62.60
2023-02-09T03:59:53.563Z,64.43
2023-02-09T04:02:41.048Z,64.83
2023-02-09T04:05:28.424Z,60.20
2023-02-09T04:08:15.863Z,54.40
2023-02-09T04:11:03.270Z,61.07
2023-02-09T04:13:50.691Z,58.37
2023-02-09T04:16:38.651Z,59.33
2023-02-09T04:19:26.106Z,60.40
2023-02-09T04:22:13.480Z,53.70
2023-02-09T04:25:00.842Z,62.10
2023-02-09T04:27:48.238Z,55.10
2023-02-09T04:30:35.717Z,54.27
2023-02-09T04:33:23.949Z,58.97
2023-02-09T04:36:11.722Z,58.50
2023-02-09T04:38:59.117Z,62.00
2023-02-09T04:41:46.462Z,54.07
2023-02-09T04:44:33.850Z,55.53
2023-02-09T04:47:21.223Z,59.23
2023-02-09T04:50:08.852Z,53.73
2023-02-09T04:52:56.234Z,57.38
2023-02-09T04:55:44.557Z,58.13
2023-02-09T04:58:50.673Z,57.27
2023-02-09T05:01:38.033Z,67.50
2023-02-09T05:04:25.550Z,48.97
2023-02-09T05:07:12.996Z,54.00
2023-02-09T05:10:00.327Z,52.90
2023-02-09T05:12:47.771Z,58.57
2023-02-09T05:15:35.277Z,54.77
2023-02-09T05:18:22.993Z,57.50
2023-02-09T05:21:10.480Z,59.23
2023-02-09T05:23:57.901Z,63.13
2023-02-09T05:26:45.323Z,52.80
2023-02-09T05:29:32.748Z,60.77
2023-02-09T05:32:20.484Z,52.40
2023-02-09T05:35:08.560Z,57.33
2023-02-09T05:37:55.959Z,55.53
2023-02-09T05:40:45.142Z,54.40
2023-02-09T05:43:32.809Z,47.57
2023-02-09T05:46:20.179Z,53.50
2023-02-09T05:49:07.581Z,53.30
2023-02-09T05:51:55.150Z,51.70
2023-02-09T05:54:42.615Z,52.20
2023-02-09T05:57:30.032Z,47.83
2023-02-09T06:00:17.514Z,48.47
2023-02-09T06:03:05.044Z,47.07
2023-02-09T06:05:52.493Z,81.43
2023-02-09T06:08:39.914Z,63.80
2023-02-09T06:11:27.374Z,52.23
2023-02-09T06:14:14.795Z,48.17
2023-02-09T06:17:02.191Z,45.00
2023-02-09T06:19:49.578Z,47.20
2023-02-09T06:22:36.968Z,45.30
2023-02-09T06:25:24.368Z,48.90
2023-02-09T06:28:11.909Z,40.67
2023-02-09T06:30:59.384Z,40.07
2023-02-09T06:33:46.842Z,40.93
2023-02-09T06:36:34.594Z,40.83
2023-02-09T06:39:22.013Z,43.10
2023-02-09T06:42:09.382Z,41.20
2023-02-09T06:44:59.401Z,43.30
2023-02-09T06:47:48.017Z,38.93
2023-02-09T06:50:36.342Z,38.60
2023-02-09T06:53:23.887Z,43.63
2023-02-09T06:56:11.792Z,49.17
2023-02-09T06:58:59.164Z,51.87
2023-02-09T07:01:46.568Z,37.87
2023-02-09T07:04:34.041Z,45.03
2023-02-09T07:07:21.478Z,37.70
2023-02-09T07:10:09.712Z,39.43
2023-02-09T07:13:00.186Z,37.90
2023-02-09T07:15:54.890Z,34.43
2023-02-09T07:18:42.511Z,38.55
2023-02-09T07:21:29.966Z,36.20
2023-02-09T07:24:17.437Z,36.00
2023-02-09T07:27:05.528Z,34.80
2023-02-09T07:29:52.857Z,37.57
2023-02-09T07:32:40.376Z,33.17
2023-02-09T07:35:27.792Z,34.10
2023-02-09T07:38:15.465Z,33.83
2023-02-09T07:41:03.934Z,29.67
2023-02-09T07:43:52.312Z,30.87
2023-02-09T07:46:39.820Z,31.90
2023-02-09T07:49:27.243Z,35.43
2023-02-09T07:52:14.662Z,34.90
2023-02-09T07:55:02.054Z,28.03
2023-02-09T07:57:49.509Z,27.60
2023-02-09T08:00:36.890Z,34.27
2023-02-09T08:03:24.971Z,29.97
2023-02-09T08:06:19.538Z,30.30
2023-02-09T08:09:07.771Z,42.20
2023-02-09T08:12:03.561Z,47.77
2023-02-09T08:14:51.191Z,34.70
2023-02-09T08:17:38.804Z,45.60
2023-02-09T08:20:28.301Z,46.67
2023-02-09T08:23:18.646Z,39.50
2023-02-09T08:26:08.354Z,38.50
2023-02-09T08:28:56.748Z,37.73
2023-02-09T08:31:45.122Z,31.43
2023-02-09T08:34:32.526Z,27.10
2023-02-09T08:37:19.907Z,23.47
2023-02-09T08:40:07.465Z,26.03
2023-02-09T08:42:54.943Z,25.77
2023-02-09T08:45:42.763Z,24.63
2023-02-09T08:48:35.852Z,23.73
2023-02-09T08:51:23.424Z,26.13
2023-02-09T08:54:10.916Z,20.13
2023-02-09T08:56:58.595Z,19.70
2023-02-09T08:59:46.440Z,19.90
2023-02-09T09:02:34.761Z,21.27
2023-02-09T09:05:22.953Z,22.20
2023-02-09T09:08:10.543Z,20.87
2023-02-09T09:10:58.015Z,30.70
2023-02-09T09:13:45.399Z,21.00
2023-02-09T09:16:32.879Z,21.27
2023-02-09T09:19:21.004Z,22.30
2023-02-09T09:22:08.985Z,19.60
2023-02-09T09:24:56.717Z,18.13
2023-02-09T09:27:45.260Z,21.37
2023-02-09T09:30:33.236Z,19.00
2023-02-09T09:33:21.027Z,19.53
2023-02-09T09:36:09.499Z,18.43
2023-02-09T09:38:57.966Z,17.93
2023-02-09T09:41:46.842Z,15.97
2023-02-09T09:44:37.393Z,16.97
2023-02-09T09:47:35.658Z,19.33
2023-02-09T09:50:26.413Z,15.60
2023-02-09T09:53:26.082Z,16.40
2023-02-09T09:56:14.043Z,16.57
2023-02-09T09:59:02.300Z,15.37
2023-02-09T10:01:51.087Z,19.20
2023-02-09T10:04:38.576Z,15.43
2023-02-09T10:07:31.400Z,18.03
2023-02-09T10:10:27.908Z,16.53
2023-02-09T10:13:24.533Z,14.37
2023-02-09T10:16:16.623Z,14.83
2023-02-09T10:19:26.251Z,17.47
2023-02-09T10:22:13.749Z,13.70
2023-02-09T10:25:02.586Z,13.50
2023-02-09T10:27:50.044Z,14.50
2023-02-09T10:30:38.258Z,16.53
2023-02-09T10:33:27.185Z,15.57
2023-02-09T10:36:24.130Z,18.40
2023-02-09T10:39:31.876Z,13.23
2023-02-09T10:42:19.352Z,14.43
2023-02-09T10:45:26.226Z,14.20
2023-02-09T10:48:13.642Z,14.63
2023-02-09T10:51:06.645Z,15.63
2023-02-09T10:54:00.371Z,16.03
2023-02-09T10:56:50.367Z,13.90
2023-02-09T10:59:38.383Z,14.77
2023-02-09T11:02:49.022Z,13.23
2023-02-09T11:05:36.484Z,15.20
2023-02-09T11:08:25.225Z,14.47
2023-02-09T11:11:23.575Z,13.20
2023-02-09T11:14:13.532Z,14.97
2023-02-09T11:17:11.650Z,12.43
2023-02-09T11:20:18.686Z,15.10
2023-02-09T11:23:09.534Z,14.93
2023-02-09T11:25:57.807Z,12.17
2023-02-09T11:28:59.242Z,15.47
2023-02-09T11:31:47.119Z,12.13
2023-02-09T11:34:54.276Z,15.43
2023-02-09T11:38:02.232Z,13.87
2023-02-09T11:40:54.363Z,18.57
2023-02-09T11:43:42.432Z,15.33
2023-02-09T11:46:31.642Z,12.40
2023-02-09T11:49:21.941Z,11.53
2023-02-09T11:52:10.365Z,13.57
2023-02-09T11:55:00.970Z,15.13
2023-02-09T11:57:51.408Z,16.93
2023-02-09T12:00:53.495Z,16.93
2023-02-09T12:03:57.484Z,17.40
2023-02-09T12:06:48.069Z,15.60
2023-02-09T12:09:38.647Z,15.53
2023-02-09T12:12:29.684Z,14.90
2023-02-09T12:15:22.967Z,14.23
2023-02-09T12:18:16.908Z,14.03
2023-02-09T12:21:07.075Z,14.17
2023-02-09T12:23:54.647Z,14.47
2023-02-09T12:26:44.484Z,13.37
2023-02-09T12:29:39.512Z,15.63
2023-02-09T12:32:30.694Z,16.03
2023-02-09T12:35:29.255Z,15.30
2023-02-09T12:38:20.475Z,16.73
2023-02-09T12:41:08.558Z,15.90
2023-02-09T12:44:11.355Z,14.87
2023-02-09T12:46:58.777Z,14.43
2023-02-09T12:49:46.197Z,14.77
2023-02-09T12:52:35.005Z,15.23
2023-02-09T12:55:23.870Z,15.17
2023-02-09T12:58:30.463Z,15.67
2023-02-09T13:01:18.031Z,15.13
2023-02-09T13:04:07.812Z,13.80
2023-02-09T13:06:57.323Z,16.00
2023-02-09T13:09:45.586Z,16.93
2023-02-09T13:12:39.708Z,18.00
2023-02-09T13:15:28.715Z,15.37
2023-02-09T13:18:21.301Z,18.35
2023-02-09T13:21:14.450Z,18.63
2023-02-09T13:24:13.780Z,15.23
2023-02-09T13:27:01.271Z,16.37
2023-02-09T13:29:50.124Z,21.60
2023-02-09T13:32:56.525Z,21.27
2023-02-09T13:35:56.255Z,23.90
2023-02-09T13:38:43.864Z,18.65
2023-02-09T13:41:40.877Z,16.37
2023-02-09T13:44:29.196Z,17.57
2023-02-09T13:47:16.671Z,17.53
2023-02-09T13:50:30.470Z,18.90
2023-02-09T13:53:18.601Z,17.40
2023-02-09T13:56:09.287Z,14.67
2023-02-09T13:58:56.988Z,17.57
2023-02-09T14:01:46.312Z,20.83
2023-02-09T14:04:34.573Z,19.43
2023-02-09T14:07:23.496Z,16.70
2023-02-09T14:10:16.896Z,16.37
2023-02-09T14:13:07.393Z,17.40
2023-02-09T14:16:09.778Z,16.10
2023-02-09T14:18:58.755Z,16.63
2023-02-09T14:21:48.449Z,15.00
2023-02-09T14:24:44.036Z,23.00
2023-02-09T14:27:36.180Z,15.80
2023-02-09T14:30:25.273Z,17.60
2023-02-09T14:33:24.936Z,17.50
2023-02-09T14:36:21.972Z,15.27
2023-02-09T14:39:17.296Z,19.37
2023-02-09T14:42:11.049Z,13.43
2023-02-09T14:44:59.727Z,17.87
2023-02-09T14:47:47.174Z,17.33
2023-02-09T14:50:34.606Z,18.83
2023-02-09T14:53:22.795Z,16.43
2023-02-09T14:56:30.467Z,14.43
2023-02-09T14:59:18.295Z,14.60
2023-02-09T15:02:19.237Z,15.03
2023-02-09T15:05:07.193Z,18.00
2023-02-09T15:07:56.602Z,15.07
2023-02-09T15:10:45.872Z,18.50
2023-02-09T15:13:33.313Z,15.07
2023-02-09T15:16:20.965Z,16.23
2023-02-09T15:19:13.747Z,18.07
2023-02-09T15:22:07.430Z,13.83
2023-02-09T15:24:56.289Z,18.90
2023-02-09T15:27:52.368Z,16.63
2023-02-09T15:30:40.046Z,21.73
2023-02-09T15:33:28.667Z,22.63
2023-02-09T15:36:19.739Z,18.63
2023-02-09T15:39:08.025Z,18.57
2023-02-09T15:42:14.274Z,16.90
2023-02-09T15:45:41.049Z,16.07
2023-02-09T15:48:28.549Z,19.10
2023-02-09T15:51:16.367Z,16.47
2023-02-09T15:54:06.039Z,14.10
2023-02-09T15:56:54.875Z,19.97
2023-02-09T15:59:42.689Z,18.43
2023-02-09T16:02:30.735Z,17.17
2023-02-09T16:05:18.181Z,18.23
2023-02-09T16:08:05.651Z,19.45
2023-02-09T16:10:53.658Z,18.57
2023-02-09T16:13:41.046Z,18.27
2023-02-09T16:16:28.781Z,16.67
2023-02-09T16:19:16.933Z,19.97
2023-02-09T16:22:06.867Z,19.77
2023-02-09T16:24:54.323Z,25.40
2023-02-09T16:27:41.726Z,27.20
2023-02-09T16:30:30.052Z,19.50
2023-02-09T16:33:18.199Z,20.30
2023-02-09T16:36:08.737Z,20.17
2023-02-09T16:38:56.142Z,22.40
2023-02-09T16:41:53.545Z,21.33
2023-02-09T16:44:41.471Z,22.03
2023-02-09T16:47:29.075Z,17.97
2023-02-09T16:50:16.451Z,22.37
2023-02-09T16:53:14.925Z,18.07
2023-02-09T16:56:04.755Z,16.20
2023-02-09T16:58:52.705Z,19.00
2023-02-09T17:01:40.222Z,21.60
2023-02-09T17:04:27.603Z,19.67
2023-02-09T17:07:15.008Z,19.13
2023-02-09T17:10:02.467Z,17.57
2023-02-09T17:12:52.007Z,20.63
2023-02-09T17:15:45.791Z,22.47
2023-02-09T17:18:39.626Z,15.70
2023-02-09T17:21:31.505Z,23.90
2023-02-09T17:24:19.010Z,18.43
2023-02-09T17:27:06.654Z,18.63
2023-02-09T17:29:54.018Z,21.33
2023-02-09T17:32:41.505Z,22.40
2023-02-09T17:35:58.108Z,21.00
2023-02-09T17:38:40.819Z,18.10
2023-02-09T17:41:44.785Z,18.27
2023-02-09T17:44:45.492Z,20.43
2023-02-09T17:47:33.944Z,27.30
2023-02-09T17:50:22.276Z,21.83
2023-02-09T17:53:18.095Z,23.20
2023-02-09T17:56:05.733Z,21.40
2023-02-09T17:58:53.267Z,25.20
2023-02-09T18:01:45.633Z,22.70
2023-02-09T18:04:33.715Z,23.17
2023-02-09T18:07:21.145Z,19.87
2023-02-09T18:10:08.679Z,21.67
2023-02-09T18:12:57.385Z,25.13
2023-02-09T18:15:45.244Z,23.07
2023-02-09T18:18:33.176Z,22.17
2023-02-09T18:21:20.541Z,24.57
2023-02-09T18:24:08.075Z,24.30
2023-02-09T18:26:55.839Z,25.23
2023-02-09T18:29:43.275Z,21.70
2023-02-09T18:32:30.685Z,24.10
2023-02-09T18:35:31.003Z,25.80
2023-02-09T18:38:18.491Z,24.50
2023-02-09T18:41:05.958Z,29.00
2023-02-09T18:43:54.426Z,22.83
2023-02-09T18:46:43.189Z,27.07
2023-02-09T18:49:30.834Z,27.70
2023-02-09T18:52:18.874Z,24.90
2023-02-09T18:55:06.505Z,27.23
2023-02-09T18:57:53.990Z,25.00
2023-02-09T19:00:41.363Z,26.67
2023-02-09T19:03:28.843Z,26.70
2023-02-09T19:06:16.270Z,30.57
2023-02-09T19:09:03.704Z,30.27
2023-02-09T19:11:51.195Z,31.27
2023-02-09T19:14:40.894Z,28.90
2023-02-09T19:17:29.237Z,27.37
2023-02-09T19:20:18.492Z,33.40
2023-02-09T19:23:07.577Z,32.33
2023-02-09T19:26:02.601Z,30.50
2023-02-09T19:28:50.283Z,27.63
2023-02-09T19:31:37.831Z,32.33
2023-02-09T19:34:25.220Z,31.97
2023-02-09T19:37:13.592Z,32.07
2023-02-09T19:40:04.856Z,31.60
2023-02-09T19:42:52.257Z,39.77
2023-02-09T19:45:39.674Z,33.17
2023-02-09T19:48:27.062Z,37.40
2023-02-09T19:51:14.526Z,38.30
2023-02-09T19:54:01.869Z,35.37
2023-02-09T19:56:49.392Z,32.73
2023-02-09T19:59:38.432Z,31.90
2023-02-09T20:02:25.854Z,31.63
2023-02-09T20:05:13.388Z,31.43
2023-02-09T20:08:00.823Z,31.27
2023-02-09T20:10:48.618Z,35.60
2023-02-09T20:13:36.422Z,35.33
2023-02-09T20:16:25.183Z,33.87
2023-02-09T20:19:12.972Z,37.10
2023-02-09T20:22:00.381Z,40.03
2023-02-09T20:24:47.791Z,37.40
2023-02-09T20:27:35.195Z,31.27
2023-02-09T20:30:22.577Z,40.13
2023-02-09T20:33:10.212Z,34.90
2023-02-09T20:35:57.592Z,42.40
2023-02-09T20:38:45.344Z,32.33
2023-02-09T20:41:32.757Z,37.23
2023-02-09T20:44:38.774Z,38.70
2023-02-09T20:47:26.424Z,35.70
2023-02-09T20:50:16.611Z,36.73
2023-02-09T20:53:04.065Z,34.93
2023-02-09T20:55:51.500Z,32.93
2023-02-09T20:58:38.923Z,36.63
2023-02-09T21:01:26.906Z,34.83
2023-02-09T21:04:15.484Z,34.00
2023-02-09T21:07:04.126Z,44.20
2023-02-09T21:09:53.980Z,38.33
2023-02-09T21:12:41.376Z,35.27
2023-02-09T21:15:28.758Z,34.50
2023-02-09T21:18:18.065Z,39.53
2023-02-09T21:21:06.203Z,41.30
2023-02-09T21:23:53.994Z,36.97
2023-02-09T21:26:42.697Z,40.07
2023-02-09T21:29:30.164Z,34.73
2023-02-09T21:32:18.252Z,36.40
2023-02-09T21:35:10.474Z,35.07
2023-02-09T21:37:58.029Z,37.23
2023-02-09T21:40:45.717Z,42.83
2023-02-09T21:43:33.815Z,37.30
2023-02-09T21:46:21.228Z,38.13
2023-02-09T21:49:08.755Z,38.53
2023-02-09T21:51:56.496Z,36.23
2023-02-09T21:54:43.835Z,42.67
2023-02-09T21:57:31.374Z,37.07
2023-02-09T22:00:19.006Z,38.90
2023-02-09T22:03:06.408Z,39.00
2023-02-09T22:06:00.558Z,43.70
2023-02-09T22:08:47.949Z,37.70
2023-02-09T22:11:35.352Z,42.87
2023-02-09T22:14:23.012Z,48.10
2023-02-09T22:17:10.376Z,37.47
2023-02-09T22:19:57.746Z,41.00
2023-02-09T22:22:46.043Z,40.17
2023-02-09T22:25:33.861Z,41.60
2023-02-09T22:28:21.301Z,38.57
2023-02-09T22:31:10.148Z,36.20
2023-02-09T22:33:58.458Z,46.17
2023-02-09T22:36:46.000Z,40.43
2023-02-09T22:39:33.471Z,45.37
2023-02-09T22:42:20.877Z,39.33
2023-02-09T22:45:08.609Z,36.23
2023-02-09T22:47:56.067Z,40.97
2023-02-09T22:50:43.431Z,39.70
2023-02-09T22:53:30.853Z,44.20
2023-02-09T22:56:18.372Z,38.10
2023-02-09T22:59:05.827Z,43.50
2023-02-09T23:01:53.251Z,45.57
2023-02-09T23:04:40.717Z,44.27
2023-02-09T23:07:28.119Z,50.47
2023-02-09T23:10:16.709Z,39.97
2023-02-09T23:13:04.153Z,38.73
2023-02-09T23:15:51.582Z,48.40
2023-02-09T23:18:39.672Z,44.23
2023-02-09T23:21:29.840Z,39.63
2023-02-09T23:24:19.062Z,48.73
2023-02-09T23:27:06.482Z,41.30
2023-02-09T23:29:55.296Z,45.70
2023-02-09T23:32:42.934Z,49.27
2023-02-09T23:35:30.275Z,44.87
2023-02-09T23:38:18.506Z,50.37
2023-02-09T23:41:07.920Z,42.60
2023-02-09T23:43:55.444Z,45.47
2023-02-09T23:46:43.239Z,47.93
2023-02-09T23:49:30.703Z,44.13
2023-02-09T23:52:18.143Z,48.17
2023-02-09T23:55:05.740Z,41.93
2023-02-09T23:57:53.171Z,47.77
